Airfield :







YOU CAN JOIN US ON...

 
LOGIN :

Register | Disclaimer

   EN    FR    IT 

 









Legend :    VFR   Marginal VFR   IFR   Intensive IFR   Very Intensive IFR
Visi :
Ceiling :
>= 8 km
>= 3000ft
5 to 8 km
1000 to 3000 ft
1500m to 5 km
500 to 1000 ft
800 to 1500m
200 to 500 ft
< 800m
< 200 ft
Symbols :   Thunderstorms  Fog  Heavy snow  Heavy precipitations  Wind > 20 kt






- Airport Elevation : 68 ft
- IATA code : YFC


CYFC - Fredericton

CURRENT METAR :
  • 260100Z AUTO 19011G17KT 9SM BKN033 15/09 A3017 RMK SLP220

EXPIRED METARs :
  • 260000Z AUTO 19012G17KT 9SM CLR 15/09 A3017 RMK SLP218
  • 252300Z AUTO 18013G19KT 9SM CLR 17/09 A3016 RMK SLP215

TAF TAF CYFC
Valid from the 26 at 00:00 until the 26 at 12:00 UTC


252338Z 2600/2612 20012G22KT P6SM FEW020
TEMPO 2600/2602 BKN020
FM260200 21010G20KT P6SM BKN020 OVC120
TEMPO 2602/2604 SCT020 BKN120
FM260400 21010KT P6SM OVC015
TEMPO 2608/2612 P6SM -SHRA RMK FCST BASED ON AUTO OBS. NXT FCST BY 260600Z
CZQM FIR / North America



MET'MAP, your aeronautical weather chart ! - Copyright ORBIFLY December 2007 - Disclaimer

ORBIFLY MET'MAP TEAM :

Programming & Development : Alexandra Zaïnal
Concept & original design : Baudouin d'Aumeries
Assistance for programming : Marc-Olivier Méhu
Technical & hardware support : Manuel Goepfert

Contact : metmap@orbifly.com




SOURCES & CREDITS :

   NOAA